createdAt,value
2023-01-15T00:04:45.904Z,99663.94
2023-01-15T00:09:51.647Z,99660.59
2023-01-15T00:14:55.061Z,99667.50
2023-01-15T00:19:58.541Z,99657.44
2023-01-15T00:25:20.805Z,99665.69
2023-01-15T00:30:25.201Z,99665.91
2023-01-15T00:35:28.593Z,99655.78
2023-01-15T00:40:33.635Z,99658.47
2023-01-15T00:45:36.630Z,99656.78
2023-01-15T00:50:39.938Z,99649.25
2023-01-15T00:55:45.525Z,99638.84
2023-01-15T01:00:48.867Z,99644.47
2023-01-15T01:05:52.623Z,99651.69
2023-01-15T01:11:05.347Z,99640.88
2023-01-15T01:16:23.813Z,99639.13
2023-01-15T01:21:28.008Z,99653.44
2023-01-15T01:26:33.097Z,99645.13
2023-01-15T01:31:36.634Z,99633.31
2023-01-15T01:36:41.962Z,99639.13
2023-01-15T01:41:48.079Z,99642.88
2023-01-15T01:46:51.539Z,99622.97
2023-01-15T01:52:00.984Z,99627.91
2023-01-15T01:57:07.427Z,99626.91
2023-01-15T02:02:11.103Z,99626.00
2023-01-15T02:07:14.723Z,99632.31
2023-01-15T02:12:27.222Z,99627.91
2023-01-15T02:17:37.291Z,99635.16
2023-01-15T02:22:56.113Z,99629.69
2023-01-15T02:28:05.695Z,99630.53
2023-01-15T02:33:15.151Z,99625.81
2023-01-15T02:38:21.802Z,99616.72
2023-01-15T02:43:29.210Z,99623.59
2023-01-15T02:48:36.062Z,99619.53
2023-01-15T02:53:41.370Z,99634.72
2023-01-15T02:58:46.779Z,99628.84
2023-01-15T03:03:57.086Z,99629.38
2023-01-15T03:09:01.191Z,99628.25
2023-01-15T03:14:12.105Z,99634.78
2023-01-15T03:19:25.643Z,99629.75
2023-01-15T03:24:34.407Z,99638.06
2023-01-15T03:29:43.673Z,99628.28
2023-01-15T03:34:51.332Z,99625.94
2023-01-15T03:39:56.301Z,99628.72
2023-01-15T03:45:05.584Z,99635.28
2023-01-15T03:50:18.836Z,99635.59
2023-01-15T03:55:26.787Z,99620.56
2023-01-15T04:00:37.486Z,99626.53
2023-01-15T04:05:41.649Z,99634.03
2023-01-15T04:10:54.039Z,99632.63
2023-01-15T04:15:59.188Z,99638.69
2023-01-15T04:21:04.774Z,99644.50
2023-01-15T04:26:09.085Z,99648.03
2023-01-15T04:31:13.983Z,99641.03
2023-01-15T04:36:17.143Z,99645.50
2023-01-15T04:41:37.979Z,99614.53
2023-01-15T04:46:45.682Z,99620.41
2023-01-15T04:51:49.135Z,99616.06
2023-01-15T04:56:54.464Z,99621.69
2023-01-15T05:02:05.005Z,99622.88
2023-01-15T05:07:09.518Z,99613.75
2023-01-15T05:12:12.847Z,99624.75
2023-01-15T05:17:17.611Z,99614.31
2023-01-15T05:22:20.900Z,99623.94
2023-01-15T05:27:24.324Z,99613.91
2023-01-15T05:32:29.219Z,99607.03
2023-01-15T05:37:32.459Z,99592.38
2023-01-15T05:42:36.062Z,99583.16
2023-01-15T05:47:40.981Z,99586.22
2023-01-15T05:52:44.023Z,99598.63
2023-01-15T05:57:47.627Z,99605.97
2023-01-15T06:02:52.535Z,99613.19
2023-01-15T06:07:56.037Z,99628.00
2023-01-15T06:12:59.475Z,99624.25
2023-01-15T06:18:04.245Z,99612.97
2023-01-15T06:23:08.019Z,99627.03
2023-01-15T06:28:12.217Z,99605.91
2023-01-15T06:33:17.071Z,99628.94
2023-01-15T06:38:20.504Z,99621.00
2023-01-15T06:43:41.345Z,99613.63
2023-01-15T06:48:47.709Z,99618.94
2023-01-15T06:53:51.041Z,99640.97
2023-01-15T06:58:56.331Z,99639.44
2023-01-15T07:04:01.246Z,99638.72
2023-01-15T07:09:04.694Z,99629.38
2023-01-15T07:14:08.112Z,99639.00
2023-01-15T07:19:13.416Z,99628.94
2023-01-15T07:24:17.370Z,99619.31
2023-01-15T07:29:21.649Z,99637.34
2023-01-15T07:34:26.590Z,99637.41
2023-01-15T07:39:31.848Z,99625.53
2023-01-15T07:44:52.715Z,99633.03
2023-01-15T07:49:57.785Z,99622.75
2023-01-15T07:55:01.445Z,99614.66
2023-01-15T08:00:05.880Z,99622.44
2023-01-15T08:05:12.698Z,99622.47
2023-01-15T08:10:16.496Z,99632.41
2023-01-15T08:15:19.970Z,99635.84
2023-01-15T08:20:27.713Z,99635.06
2023-01-15T08:25:31.140Z,99633.34
2023-01-15T08:30:34.462Z,99626.19
2023-01-15T08:35:39.200Z,99628.13
2023-01-15T08:40:56.415Z,99622.28
2023-01-15T08:46:01.240Z,99629.00
2023-01-15T08:51:08.107Z,99619.22
2023-01-15T08:56:14.805Z,99614.28
2023-01-15T09:01:18.231Z,99609.84
2023-01-15T09:06:22.967Z,99613.88
2023-01-15T09:11:26.507Z,99592.34
2023-01-15T09:16:32.411Z,99605.31
2023-01-15T09:21:37.336Z,99607.03
2023-01-15T09:26:41.323Z,99597.59
2023-01-15T09:31:44.720Z,99587.97
2023-01-15T09:36:50.986Z,99589.75
2023-01-15T09:42:10.682Z,99593.03
2023-01-15T09:47:19.699Z,99583.97
2023-01-15T09:52:39.105Z,99587.81
2023-01-15T09:57:43.908Z,99585.72
2023-01-15T10:02:51.691Z,99595.25
2023-01-15T10:08:03.021Z,99593.72
2023-01-15T10:13:13.957Z,99577.03
2023-01-15T10:18:20.810Z,99593.28
2023-01-15T10:23:43.462Z,99572.19
2023-01-15T10:29:01.411Z,99571.47
2023-01-15T10:34:44.234Z,99565.13
2023-01-15T10:40:00.519Z,99553.34
2023-01-15T10:45:12.504Z,99552.28
2023-01-15T10:50:19.404Z,99533.78
2023-01-15T10:55:30.021Z,99543.59
2023-01-15T11:00:33.877Z,99533.91
2023-01-15T11:05:37.680Z,99525.84
2023-01-15T11:10:43.150Z,99531.78
2023-01-15T11:16:05.363Z,99523.38
2023-01-15T11:21:14.277Z,99527.28
2023-01-15T11:26:25.579Z,99516.25
2023-01-15T11:31:38.391Z,99515.38
2023-01-15T11:36:41.957Z,99500.13
2023-01-15T11:42:07.309Z,99495.16
2023-01-15T11:47:29.924Z,99491.75
2023-01-15T11:52:33.555Z,99498.25
2023-01-15T11:57:39.424Z,99508.53
2023-01-15T12:02:45.284Z,99514.88
2023-01-15T12:07:51.161Z,99507.56
2023-01-15T12:13:11.919Z,99505.22
2023-01-15T12:18:44.327Z,99517.25
2023-01-15T12:24:15.998Z,99507.03
2023-01-15T12:29:26.115Z,99512.41
2023-01-15T12:34:35.681Z,99504.03
2023-01-15T12:39:48.287Z,99505.03
2023-01-15T12:45:08.066Z,99514.63
2023-01-15T12:50:28.507Z,99506.19
2023-01-15T12:55:36.881Z,99491.34
2023-01-15T13:00:45.368Z,99527.13
2023-01-15T13:05:53.116Z,99526.94
2023-01-15T13:10:56.792Z,99533.25
2023-01-15T13:16:11.218Z,99521.25
2023-01-15T13:21:16.933Z,99530.09
2023-01-15T13:26:38.439Z,99539.09
2023-01-15T13:32:06.431Z,99547.25
2023-01-15T13:37:20.387Z,99545.75
2023-01-15T13:42:34.641Z,99554.13
2023-01-15T13:47:43.533Z,99549.53
2023-01-15T13:52:47.838Z,99544.19
2023-01-15T13:57:51.319Z,99541.31
2023-01-15T14:02:57.871Z,99535.19
2023-01-15T14:08:03.233Z,99550.13
2023-01-15T14:13:23.760Z,99540.78
2023-01-15T14:19:02.271Z,99540.72
2023-01-15T14:24:24.274Z,99537.75
2023-01-15T14:29:53.775Z,99520.88
2023-01-15T14:35:00.560Z,99513.88
2023-01-15T14:40:06.783Z,99520.22
2023-01-15T14:45:20.945Z,99504.19
2023-01-15T14:50:31.439Z,99512.63
2023-01-15T14:55:39.769Z,99501.38
2023-01-15T15:00:47.665Z,99495.56
2023-01-15T15:05:53.558Z,99503.63
2023-01-15T15:10:59.488Z,99493.53
2023-01-15T15:16:08.956Z,99483.50
2023-01-15T15:21:19.737Z,99481.72
2023-01-15T15:26:26.790Z,99485.22
2023-01-15T15:31:36.255Z,99473.19
2023-01-15T15:36:42.179Z,99482.91
2023-01-15T15:42:06.417Z,99462.81
2023-01-15T15:47:38.360Z,99454.75
2023-01-15T15:52:46.249Z,99448.25
2023-01-15T15:57:53.490Z,99417.88
2023-01-15T16:02:56.992Z,99419.84
2023-01-15T16:08:19.213Z,99398.69
2023-01-15T16:13:29.944Z,99382.59
2023-01-15T16:18:41.021Z,99378.91
2023-01-15T16:23:57.562Z,99380.25
2023-01-15T16:29:03.887Z,99389.56
2023-01-15T16:34:07.734Z,99401.94
2023-01-15T16:39:23.508Z,99381.41
2023-01-15T16:44:34.258Z,99393.09
2023-01-15T16:49:37.725Z,99399.53
2023-01-15T17:00:31.095Z,99387.47
2023-01-15T17:05:34.759Z,99396.19
2023-01-15T17:10:39.925Z,99401.88
2023-01-15T17:15:43.480Z,99406.78
2023-01-15T17:20:47.510Z,99405.78
2023-01-15T17:25:52.967Z,99406.03
2023-01-15T17:31:01.139Z,99410.78
2023-01-15T17:36:04.903Z,99422.13
2023-01-15T17:41:11.556Z,99416.38
2023-01-15T17:46:15.174Z,99418.03
2023-01-15T17:51:18.790Z,99410.81
2023-01-15T17:56:41.014Z,99405.72
2023-01-15T18:02:03.694Z,99403.63
2023-01-15T18:07:07.728Z,99394.16
2023-01-15T18:12:12.729Z,99400.28
2023-01-15T18:17:16.409Z,99388.63
2023-01-15T18:22:20.064Z,99387.09
2023-01-15T18:27:30.303Z,99398.78
2023-01-15T18:32:33.685Z,99401.31
2023-01-15T18:37:37.412Z,99391.28
2023-01-15T18:42:59.812Z,99378.63
2023-01-15T18:48:03.687Z,99366.66
2023-01-15T18:53:08.670Z,99361.09
2023-01-15T18:58:13.653Z,99354.44
2023-01-15T19:03:16.950Z,99347.88
2023-01-15T19:08:20.525Z,99343.84
2023-01-15T19:13:25.412Z,99339.44
2023-01-15T19:18:51.684Z,99318.03
2023-01-15T19:23:55.089Z,99303.13
2023-01-15T19:29:00.099Z,99302.44
2023-01-15T19:34:32.211Z,99313.00
2023-01-15T19:39:31.473Z,99306.72
2023-01-15T19:44:54.174Z,99301.09
2023-01-15T19:50:14.843Z,99295.41
2023-01-15T19:55:19.487Z,99293.59
2023-01-15T20:00:25.867Z,99294.13
2023-01-15T20:05:31.971Z,99290.31
2023-01-15T20:10:38.772Z,99288.28
2023-01-15T20:15:45.687Z,99286.38
2023-01-15T20:20:49.510Z,99293.59
2023-01-15T20:25:53.793Z,99288.50
2023-01-15T20:31:00.308Z,99285.47
2023-01-15T20:36:04.543Z,99288.63
2023-01-15T20:41:26.175Z,99289.16
2023-01-15T20:46:31.139Z,99293.09
2023-01-15T20:51:34.701Z,99284.56
2023-01-15T20:56:38.345Z,99296.00
2023-01-15T21:01:43.388Z,99284.19
2023-01-15T21:06:47.093Z,99289.50
2023-01-15T21:11:50.738Z,99281.50
2023-01-15T21:16:55.729Z,99287.97
2023-01-15T21:21:59.304Z,99281.84
2023-01-15T21:27:02.868Z,99279.09
2023-01-15T21:32:08.222Z,99269.50
2023-01-15T21:37:11.833Z,99270.16
2023-01-15T21:42:35.944Z,99271.22
2023-01-15T21:47:41.866Z,99269.94
2023-01-15T21:52:45.420Z,99265.25
2023-01-15T21:57:49.588Z,99277.28
2023-01-15T22:02:55.997Z,99279.97
2023-01-15T22:07:59.645Z,99271.84
2023-01-15T22:13:02.958Z,99280.59
2023-01-15T22:18:08.034Z,99271.78
2023-01-15T22:23:11.411Z,99271.13
2023-01-15T22:28:14.992Z,99272.34
2023-01-15T22:33:19.849Z,99267.00
2023-01-15T22:38:23.216Z,99255.63
2023-01-15T22:43:26.677Z,99250.25
2023-01-15T22:48:31.626Z,99248.41
2023-01-15T22:53:36.145Z,99234.81
2023-01-15T22:58:42.821Z,99240.78
2023-01-15T23:03:47.560Z,99231.56
2023-01-15T23:08:51.147Z,99223.00
2023-01-15T23:13:54.674Z,99225.47
2023-01-15T23:18:59.707Z,99202.91
2023-01-15T23:24:04.200Z,99197.25
2023-01-15T23:29:08.068Z,99195.88
2023-01-15T23:34:12.956Z,99202.22
2023-01-15T23:39:16.547Z,99176.53
2023-01-15T23:44:39.321Z,99161.44
2023-01-15T23:49:44.323Z,99175.13
2023-01-15T23:54:47.742Z,99185.28
2023-01-15T23:59:51.369Z,99162.59
